createdAt,value
2019-05-09T00:00:49.403Z,0.00
2019-05-09T00:01:49.376Z,0.00
2019-05-09T00:02:49.350Z,0.00
2019-05-09T00:03:49.323Z,0.00
2019-05-09T00:04:49.301Z,0.00
2019-05-09T00:05:49.273Z,0.00
2019-05-09T00:06:49.245Z,0.00
2019-05-09T00:07:49.219Z,0.00
2019-05-09T00:08:49.194Z,0.00
2019-05-09T00:09:49.165Z,0.00
2019-05-09T00:10:49.140Z,0.00
2019-05-09T00:11:49.114Z,0.00
2019-05-09T00:12:49.089Z,0.00
2019-05-09T00:13:49.061Z,0.00
2019-05-09T00:14:49.041Z,0.00
2019-05-09T00:15:49.015Z,0.00
2019-05-09T00:16:48.985Z,0.00
2019-05-09T00:17:48.957Z,0.00
2019-05-09T00:18:48.932Z,0.00
2019-05-09T00:19:48.905Z,0.00
2019-05-09T00:20:50.380Z,0.00
2019-05-09T00:21:48.852Z,0.00
2019-05-09T00:22:48.826Z,0.00
2019-05-09T00:23:48.800Z,0.00
2019-05-09T00:24:48.773Z,0.00
2019-05-09T00:25:48.746Z,0.00
2019-05-09T00:26:48.722Z,0.00
2019-05-09T00:27:48.697Z,0.00
2019-05-09T00:28:48.669Z,0.00
2019-05-09T00:29:48.643Z,0.00
2019-05-09T00:30:48.616Z,0.00
2019-05-09T00:31:48.590Z,0.00
2019-05-09T00:32:48.564Z,0.00
2019-05-09T00:33:48.542Z,0.00
2019-05-09T00:34:48.511Z,4.00
2019-05-09T00:35:48.487Z,0.00
2019-05-09T00:36:48.460Z,0.00
2019-05-09T00:37:48.432Z,0.00
2019-05-09T00:38:48.408Z,0.00
2019-05-09T00:39:48.380Z,0.00
2019-05-09T00:40:57.792Z,0.00
2019-05-09T00:41:50.733Z,0.00
2019-05-09T00:42:48.300Z,0.00
2019-05-09T00:43:48.275Z,0.00
2019-05-09T00:44:48.249Z,0.00
2019-05-09T00:45:48.223Z,0.00
2019-05-09T00:46:48.196Z,0.00
2019-05-09T00:47:48.170Z,0.00
2019-05-09T00:48:48.144Z,0.00
2019-05-09T00:49:48.117Z,0.00
2019-05-09T00:50:48.091Z,0.00
2019-05-09T00:51:48.065Z,0.00
2019-05-09T00:52:48.039Z,0.00
2019-05-09T00:53:48.015Z,0.00
2019-05-09T00:54:47.986Z,0.00
2019-05-09T00:55:47.963Z,0.00
2019-05-09T00:56:47.936Z,0.00
2019-05-09T00:57:47.910Z,0.00
2019-05-09T00:58:47.881Z,0.00
2019-05-09T00:59:47.855Z,0.00
2019-05-09T01:00:47.831Z,0.00
2019-05-09T01:01:47.801Z,0.00
2019-05-09T01:02:47.775Z,0.00
2019-05-09T01:03:47.748Z,0.00
2019-05-09T01:04:47.722Z,0.00
2019-05-09T01:05:47.709Z,0.00
2019-05-09T01:06:47.668Z,0.00
2019-05-09T01:07:47.641Z,0.00
2019-05-09T01:08:47.616Z,0.00
2019-05-09T01:09:47.593Z,0.00
2019-05-09T01:10:47.562Z,0.00
2019-05-09T01:11:47.537Z,0.00
2019-05-09T01:12:47.510Z,0.00
2019-05-09T01:13:47.483Z,0.00
2019-05-09T01:14:47.457Z,0.00
2019-05-09T01:15:47.430Z,0.00
2019-05-09T01:16:47.404Z,0.00
2019-05-09T01:17:47.377Z,0.00
2019-05-09T01:18:47.352Z,0.00
2019-05-09T01:19:47.324Z,0.00
2019-05-09T01:20:47.297Z,0.00
2019-05-09T01:21:47.270Z,0.00
2019-05-09T01:22:47.244Z,0.00
2019-05-09T01:23:47.217Z,0.00
2019-05-09T01:24:47.192Z,0.00
2019-05-09T01:25:47.164Z,0.00
2019-05-09T01:26:47.140Z,4.00
2019-05-09T01:27:47.112Z,0.00
2019-05-09T01:28:47.088Z,0.00
2019-05-09T01:29:48.290Z,0.00
2019-05-09T01:30:47.033Z,0.00
2019-05-09T01:31:47.006Z,0.00
2019-05-09T01:32:46.979Z,0.00
2019-05-09T01:33:46.952Z,0.00
2019-05-09T01:34:46.926Z,0.00
2019-05-09T01:35:48.401Z,0.00
2019-05-09T01:36:46.873Z,0.00
2019-05-09T01:37:46.846Z,0.00
2019-05-09T01:38:46.819Z,0.00
2019-05-09T01:39:46.793Z,0.00
2019-05-09T01:40:46.772Z,0.00
2019-05-09T01:41:48.243Z,0.00
2019-05-09T01:42:46.714Z,0.00
2019-05-09T01:43:46.688Z,0.00
2019-05-09T01:44:46.661Z,0.00
2019-05-09T01:45:47.184Z,0.00
2019-05-09T01:46:46.608Z,0.00
2019-05-09T01:47:46.583Z,0.00
2019-05-09T01:48:46.555Z,0.00
2019-05-09T01:49:46.528Z,0.00
2019-05-09T01:50:46.503Z,0.00
2019-05-09T01:51:46.475Z,0.00
2019-05-09T01:52:46.449Z,0.00
2019-05-09T01:53:46.422Z,0.00
2019-05-09T01:54:46.400Z,0.00
2019-05-09T01:55:46.369Z,0.00
2019-05-09T01:56:46.344Z,0.00
2019-05-09T01:57:48.000Z,0.00
2019-05-09T01:58:46.291Z,0.00
2019-05-09T01:59:46.272Z,0.00
2019-05-09T02:00:46.239Z,0.00
2019-05-09T02:01:46.212Z,0.00
2019-05-09T02:02:46.185Z,0.00
2019-05-09T02:03:46.161Z,0.00
2019-05-09T02:04:46.133Z,0.00
2019-05-09T02:05:46.107Z,0.00
2019-05-09T02:06:46.081Z,0.00
2019-05-09T02:07:46.055Z,0.00
2019-05-09T02:08:46.051Z,0.00
2019-05-09T02:09:46.000Z,0.00
2019-05-09T02:10:45.974Z,0.00
2019-05-09T02:11:45.947Z,0.00
2019-05-09T02:12:45.923Z,0.00
2019-05-09T02:13:45.896Z,0.00
2019-05-09T02:14:45.869Z,0.00
2019-05-09T02:15:45.842Z,0.00
2019-05-09T02:16:45.816Z,0.00
2019-05-09T02:17:57.853Z,0.00
2019-05-09T02:18:45.766Z,0.00
2019-05-09T02:19:45.737Z,0.00
2019-05-09T02:20:45.711Z,0.00
2019-05-09T02:21:45.684Z,0.00
2019-05-09T02:22:45.658Z,0.00
2019-05-09T02:23:45.632Z,0.00
2019-05-09T02:24:45.606Z,0.00
2019-05-09T02:25:45.579Z,0.00
2019-05-09T02:26:45.551Z,0.00
2019-05-09T02:27:45.526Z,0.00
2019-05-09T02:28:45.499Z,0.00
2019-05-09T02:29:45.473Z,0.00
2019-05-09T02:30:45.452Z,0.00
2019-05-09T02:31:45.422Z,0.00
2019-05-09T02:32:45.499Z,0.00
2019-05-09T02:33:45.998Z,0.00
2019-05-09T02:34:45.345Z,0.00
2019-05-09T02:35:55.796Z,0.00
2019-05-09T02:36:45.289Z,0.00
2019-05-09T02:37:45.263Z,0.00
2019-05-09T02:38:48.455Z,0.00
2019-05-09T02:39:45.214Z,0.00
2019-05-09T02:40:45.184Z,0.00
2019-05-09T02:42:00.891Z,0.00
2019-05-09T02:42:48.711Z,0.00
2019-05-09T02:43:45.103Z,0.00
2019-05-09T02:44:45.079Z,0.00
2019-05-09T02:45:49.357Z,0.00
2019-05-09T02:46:45.027Z,0.00
2019-05-09T02:47:45.007Z,0.00
2019-05-09T02:48:44.974Z,0.00
2019-05-09T02:49:44.948Z,0.00
2019-05-09T02:50:48.257Z,4.00
2019-05-09T02:51:44.893Z,0.00
2019-05-09T02:52:44.877Z,0.00
2019-05-09T02:53:44.840Z,0.00
2019-05-09T02:54:44.817Z,0.00
2019-05-09T02:55:44.795Z,0.00
2019-05-09T02:56:44.768Z,0.00
2019-05-09T02:57:44.735Z,0.00
2019-05-09T02:58:44.718Z,0.00
2019-05-09T02:59:44.682Z,0.00
2019-05-09T03:00:44.656Z,0.00
2019-05-09T03:01:44.628Z,0.00
2019-05-09T03:02:44.603Z,0.00
2019-05-09T03:03:44.576Z,0.00
2019-05-09T03:04:44.550Z,0.00
2019-05-09T03:05:44.524Z,0.00
2019-05-09T03:06:44.495Z,0.00
2019-05-09T03:07:44.470Z,4.00
2019-05-09T03:08:44.443Z,0.00
2019-05-09T03:09:44.416Z,4.00
2019-05-09T03:10:44.390Z,4.00
2019-05-09T03:11:44.366Z,4.00
2019-05-09T03:12:44.341Z,4.00
2019-05-09T03:13:44.309Z,4.00
2019-05-09T03:14:44.284Z,4.00
2019-05-09T03:15:44.262Z,4.00
2019-05-09T03:16:44.231Z,4.00
2019-05-09T03:17:44.204Z,4.00
2019-05-09T03:18:44.177Z,4.00
2019-05-09T03:19:44.909Z,4.00
2019-05-09T03:20:44.126Z,4.00
2019-05-09T03:21:44.106Z,4.00
2019-05-09T03:22:44.073Z,4.00
2019-05-09T03:23:44.046Z,4.00
2019-05-09T03:24:44.025Z,4.00
2019-05-09T03:25:43.994Z,4.00
2019-05-09T03:26:43.968Z,4.00
2019-05-09T03:27:43.943Z,4.00
2019-05-09T03:28:43.924Z,4.00
2019-05-09T03:29:43.888Z,4.00
2019-05-09T03:30:43.863Z,4.00
2019-05-09T03:31:43.837Z,8.00
2019-05-09T03:32:43.811Z,8.00
2019-05-09T03:33:43.786Z,8.00
2019-05-09T03:34:43.757Z,8.00
2019-05-09T03:35:43.735Z,8.00
2019-05-09T03:36:43.705Z,12.00
2019-05-09T03:37:43.677Z,12.00
2019-05-09T03:38:43.651Z,12.00
2019-05-09T03:39:43.627Z,16.00
2019-05-09T03:40:43.600Z,20.00
2019-05-09T03:41:43.572Z,20.00
2019-05-09T03:42:43.901Z,28.00
2019-05-09T03:43:43.521Z,28.00
2019-05-09T03:44:43.494Z,32.00
2019-05-09T03:45:43.467Z,40.00
2019-05-09T03:46:43.442Z,44.00
2019-05-09T03:47:43.415Z,48.00
2019-05-09T03:48:43.389Z,56.00
2019-05-09T03:49:43.364Z,60.00
2019-05-09T03:50:43.335Z,72.00
2019-05-09T03:51:43.309Z,80.00
2019-05-09T03:52:43.285Z,88.00
2019-05-09T03:53:43.257Z,104.00
2019-05-09T03:54:43.230Z,116.00
2019-05-09T03:55:43.205Z,132.00
2019-05-09T03:56:43.180Z,148.00
2019-05-09T03:57:43.150Z,164.00
2019-05-09T03:58:43.124Z,180.00
2019-05-09T03:59:43.098Z,200.00
2019-05-09T04:00:43.071Z,220.00
2019-05-09T04:01:46.606Z,240.00
2019-05-09T04:02:43.020Z,268.00
2019-05-09T04:03:42.991Z,292.00
2019-05-09T04:04:42.965Z,316.00
2019-05-09T04:05:55.394Z,344.00
2019-05-09T04:06:42.912Z,368.00
2019-05-09T04:07:42.885Z,388.00
2019-05-09T04:08:42.859Z,416.00
2019-05-09T04:09:42.831Z,436.00
2019-05-09T04:10:42.805Z,452.00
2019-05-09T04:11:42.778Z,468.00
2019-05-09T04:12:53.873Z,500.00
2019-05-09T04:13:42.725Z,512.00
2019-05-09T04:14:42.701Z,540.00
2019-05-09T04:15:42.672Z,600.00
2019-05-09T04:16:42.645Z,676.00
2019-05-09T04:17:42.619Z,724.00
2019-05-09T04:18:42.592Z,732.00
2019-05-09T04:19:42.565Z,808.00
2019-05-09T04:20:42.538Z,816.00
2019-05-09T04:21:42.511Z,852.00
2019-05-09T04:22:42.488Z,868.00
2019-05-09T04:23:42.459Z,888.00
2019-05-09T04:24:42.432Z,932.00
2019-05-09T04:25:42.405Z,968.00
2019-05-09T04:26:42.379Z,1016.00
2019-05-09T04:27:42.353Z,1068.00
2019-05-09T04:28:42.327Z,1092.00
2019-05-09T04:29:42.298Z,1124.00
2019-05-09T04:30:44.524Z,1180.00
2019-05-09T04:31:42.246Z,1228.00
2019-05-09T04:32:42.219Z,1280.00
2019-05-09T04:33:42.192Z,1348.00
2019-05-09T04:34:42.171Z,1412.00
2019-05-09T04:35:42.140Z,1440.00
2019-05-09T04:36:43.614Z,1468.00
2019-05-09T04:37:42.086Z,1488.00
2019-05-09T04:38:42.070Z,1548.00
2019-05-09T04:39:42.041Z,1628.00
2019-05-09T04:40:44.905Z,1700.00
2019-05-09T04:41:41.998Z,1660.00
2019-05-09T04:42:44.519Z,1612.00
2019-05-09T04:43:41.934Z,1588.00
2019-05-09T04:44:41.902Z,1544.00
2019-05-09T04:45:42.047Z,1544.00
2019-05-09T04:46:41.848Z,1508.00
2019-05-09T04:47:43.575Z,1492.00
2019-05-09T04:48:41.795Z,1472.00
2019-05-09T04:49:45.168Z,1472.00
2019-05-09T04:50:41.742Z,1488.00
2019-05-09T04:51:41.716Z,1520.00
2019-05-09T04:52:41.690Z,1548.00
2019-05-09T04:53:41.663Z,1580.00
2019-05-09T04:54:41.641Z,1624.00
2019-05-09T04:55:41.610Z,1664.00
2019-05-09T04:56:41.585Z,1720.00
2019-05-09T04:57:41.558Z,1768.00
2019-05-09T04:58:41.531Z,1812.00
2019-05-09T04:59:41.505Z,1864.00
2019-05-09T05:00:41.479Z,1944.00
2019-05-09T05:01:41.452Z,1992.00
2019-05-09T05:02:41.425Z,2016.00
2019-05-09T05:03:41.400Z,2032.00
2019-05-09T05:04:41.373Z,2044.00
2019-05-09T05:05:41.347Z,2048.00
2019-05-09T05:06:41.320Z,2056.00
2019-05-09T05:07:41.294Z,2052.00
2019-05-09T05:08:41.268Z,2084.00
2019-05-09T05:09:41.241Z,2092.00
2019-05-09T05:10:41.215Z,2204.00
2019-05-09T05:11:41.188Z,2240.00
2019-05-09T05:12:41.162Z,2360.00
2019-05-09T05:13:41.142Z,2488.00
2019-05-09T05:14:41.110Z,2704.00
2019-05-09T05:15:41.084Z,2812.00
2019-05-09T05:16:41.064Z,2916.00
2019-05-09T05:17:41.031Z,2944.00
2019-05-09T05:18:41.006Z,2916.00
2019-05-09T05:19:40.978Z,2884.00
2019-05-09T05:20:40.952Z,2864.00
2019-05-09T05:21:40.926Z,2860.00
2019-05-09T05:22:40.904Z,2876.00
2019-05-09T05:23:40.875Z,2812.00
2019-05-09T05:24:40.855Z,2716.00
2019-05-09T05:25:40.825Z,2812.00
2019-05-09T05:26:40.797Z,2852.00
2019-05-09T05:27:40.770Z,2952.00
2019-05-09T05:28:40.746Z,2972.00
2019-05-09T05:29:40.718Z,3020.00
2019-05-09T05:30:40.691Z,2660.00
2019-05-09T05:31:40.666Z,3180.00
2019-05-09T05:32:40.647Z,3280.00
2019-05-09T05:33:40.615Z,3368.00
2019-05-09T05:34:40.589Z,3452.00
2019-05-09T05:35:40.563Z,3516.00
2019-05-09T05:36:40.537Z,3232.00
2019-05-09T05:37:40.510Z,3412.00
2019-05-09T05:38:40.485Z,4188.00
2019-05-09T05:39:40.463Z,4708.00
2019-05-09T05:40:44.732Z,4852.00
2019-05-09T05:41:40.408Z,4980.00
2019-05-09T05:42:40.382Z,4880.00
2019-05-09T05:43:44.577Z,4848.00
2019-05-09T05:44:40.342Z,5140.00
2019-05-09T05:45:40.303Z,4724.00
2019-05-09T05:46:40.277Z,4376.00
2019-05-09T05:47:40.252Z,4688.00
2019-05-09T05:48:40.228Z,4880.00
2019-05-09T05:49:40.204Z,5212.00
2019-05-09T05:50:40.177Z,5084.00
2019-05-09T05:51:40.151Z,5008.00
2019-05-09T05:52:40.127Z,4684.00
2019-05-09T05:53:40.100Z,4476.00
2019-05-09T05:54:40.075Z,4296.00
2019-05-09T05:55:40.053Z,4236.00
2019-05-09T05:56:40.025Z,4216.00
2019-05-09T05:57:40.003Z,4380.00
2019-05-09T05:58:39.974Z,4424.00
2019-05-09T05:59:40.944Z,4512.00
2019-05-09T06:00:39.924Z,4288.00
2019-05-09T06:01:39.902Z,4012.00
2019-05-09T06:02:39.874Z,3908.00
2019-05-09T06:03:39.849Z,3932.00
2019-05-09T06:04:39.824Z,3916.00
2019-05-09T06:05:39.798Z,3920.00
2019-05-09T06:06:39.774Z,4120.00
2019-05-09T06:07:39.750Z,4200.00
2019-05-09T06:08:39.725Z,4352.00
2019-05-09T06:09:39.699Z,4552.00
2019-05-09T06:10:39.675Z,4828.00
2019-05-09T06:11:39.650Z,5080.00
2019-05-09T06:12:39.626Z,5356.00
2019-05-09T06:13:53.275Z,5580.00
2019-05-09T06:14:39.575Z,5712.00
2019-05-09T06:15:39.556Z,5628.00
2019-05-09T06:16:39.531Z,5772.00
2019-05-09T06:17:39.543Z,6072.00
2019-05-09T06:18:39.477Z,5916.00
2019-05-09T06:19:39.453Z,5756.00
2019-05-09T06:20:39.428Z,5440.00
2019-05-09T06:21:39.403Z,4912.00
2019-05-09T06:22:39.379Z,4864.00
2019-05-09T06:23:39.386Z,4956.00
2019-05-09T06:24:39.332Z,5008.00
2019-05-09T06:25:39.305Z,4892.00
2019-05-09T06:26:39.281Z,4944.00
2019-05-09T06:27:42.431Z,4928.00
2019-05-09T06:28:39.234Z,4876.00
2019-05-09T06:29:39.210Z,4832.00
2019-05-09T06:30:41.157Z,4828.00
2019-05-09T06:31:39.162Z,4916.00
2019-05-09T06:32:39.137Z,4988.00
2019-05-09T06:33:46.477Z,5132.00
2019-05-09T06:34:42.021Z,5240.00
2019-05-09T06:35:39.064Z,5140.00
2019-05-09T06:36:39.188Z,5020.00
2019-05-09T06:37:39.016Z,5004.00
2019-05-09T06:38:38.992Z,4900.00
2019-05-09T06:39:38.978Z,4924.00
2019-05-09T06:40:38.953Z,5016.00
2019-05-09T06:41:38.918Z,4856.00
2019-05-09T06:42:38.894Z,4824.00
2019-05-09T06:43:39.589Z,4656.00
2019-05-09T06:44:38.847Z,4460.00
2019-05-09T06:45:41.458Z,4384.00
2019-05-09T06:46:38.799Z,4532.00
2019-05-09T06:47:38.776Z,4968.00
2019-05-09T06:48:38.752Z,5092.00
2019-05-09T06:49:38.728Z,5096.00
2019-05-09T06:50:38.703Z,5072.00
2019-05-09T06:51:38.881Z,5052.00
2019-05-09T06:52:38.656Z,5216.00
2019-05-09T06:53:38.633Z,5400.00
2019-05-09T06:54:41.211Z,5872.00
2019-05-09T06:55:38.715Z,6252.00
2019-05-09T06:56:38.559Z,6288.00
2019-05-09T06:57:42.211Z,6328.00
2019-05-09T06:58:38.573Z,6492.00
2019-05-09T06:59:38.488Z,6644.00
2019-05-09T07:00:39.966Z,6920.00
2019-05-09T07:01:38.441Z,7256.00
2019-05-09T07:02:38.874Z,7624.00
2019-05-09T07:03:38.393Z,7948.00
2019-05-09T07:04:38.369Z,8096.00
2019-05-09T07:05:38.764Z,8048.00
2019-05-09T07:06:39.071Z,7880.00
2019-05-09T07:07:38.297Z,7892.00
2019-05-09T07:08:38.275Z,8200.00
2019-05-09T07:09:38.528Z,8448.00
2019-05-09T07:10:38.227Z,8672.00
2019-05-09T07:11:38.241Z,8268.00
2019-05-09T07:12:38.183Z,7680.00
2019-05-09T07:13:38.290Z,6996.00
2019-05-09T07:14:41.448Z,6880.00
2019-05-09T07:15:38.109Z,7100.00
2019-05-09T07:16:38.086Z,7188.00
2019-05-09T07:17:38.710Z,7156.00
2019-05-09T07:18:38.345Z,7152.00
2019-05-09T07:19:38.554Z,7056.00
2019-05-09T07:20:38.084Z,6576.00
2019-05-09T07:21:37.969Z,5932.00
2019-05-09T07:22:40.197Z,5480.00
2019-05-09T07:23:37.926Z,4776.00
2019-05-09T07:24:37.910Z,4432.00
2019-05-09T07:25:37.901Z,4308.00
2019-05-09T07:26:37.853Z,4120.00
2019-05-09T07:27:39.075Z,4064.00
2019-05-09T07:28:37.816Z,4040.00
2019-05-09T07:29:37.785Z,3932.00
2019-05-09T07:30:37.759Z,4008.00
2019-05-09T07:31:38.066Z,3996.00
2019-05-09T07:32:38.257Z,4220.00
2019-05-09T07:33:38.372Z,4100.00
2019-05-09T07:34:38.250Z,3936.00
2019-05-09T07:35:38.309Z,3908.00
2019-05-09T07:36:38.372Z,4272.00
2019-05-09T07:37:38.017Z,4752.00
2019-05-09T07:38:38.501Z,5236.00
2019-05-09T07:39:38.298Z,5704.00
2019-05-09T07:40:38.486Z,5960.00
2019-05-09T07:41:38.431Z,5816.00
2019-05-09T07:42:39.082Z,5268.00
2019-05-09T07:43:38.431Z,4444.00
2019-05-09T07:44:46.227Z,3720.00
2019-05-09T07:45:38.390Z,3284.00
2019-05-09T07:46:38.410Z,2944.00
2019-05-09T07:47:38.735Z,2580.00
2019-05-09T07:48:38.067Z,2376.00
2019-05-09T07:49:37.790Z,2312.00
2019-05-09T07:50:39.538Z,2412.00
2019-05-09T07:51:37.463Z,2604.00
2019-05-09T07:52:38.804Z,2856.00
2019-05-09T07:53:38.034Z,3120.00
2019-05-09T07:54:37.814Z,3320.00
2019-05-09T07:55:37.932Z,3508.00
2019-05-09T07:56:37.815Z,3700.00
2019-05-09T07:57:44.934Z,3948.00
2019-05-09T07:58:37.791Z,4188.00
2019-05-09T07:59:38.914Z,4504.00
2019-05-09T08:00:38.459Z,4812.00
2019-05-09T08:01:38.478Z,5020.00
2019-05-09T08:02:38.703Z,5228.00
2019-05-09T08:03:38.501Z,5404.00
2019-05-09T08:04:38.615Z,5652.00
2019-05-09T08:05:38.501Z,5912.00
2019-05-09T08:06:38.031Z,6080.00
2019-05-09T08:07:38.154Z,6436.00
2019-05-09T08:08:38.429Z,6652.00
2019-05-09T08:09:38.770Z,6556.00
2019-05-09T08:10:38.549Z,6292.00
2019-05-09T08:11:37.624Z,6628.00
2019-05-09T08:12:38.963Z,7076.00
2019-05-09T08:13:39.132Z,7712.00
2019-05-09T08:14:37.767Z,8288.00
2019-05-09T08:15:38.404Z,8780.00
2019-05-09T08:16:37.957Z,9280.00
2019-05-09T08:17:38.178Z,8980.00
2019-05-09T08:18:37.549Z,8436.00
2019-05-09T08:19:38.054Z,8048.00
2019-05-09T08:20:40.376Z,8220.00
2019-05-09T08:21:38.339Z,8196.00
2019-05-09T08:22:40.919Z,7860.00
2019-05-09T08:23:39.498Z,7612.00
2019-05-09T08:24:38.049Z,7776.00
2019-05-09T08:25:38.214Z,8184.00
2019-05-09T08:26:36.425Z,8712.00
2019-05-09T08:27:37.828Z,9384.00
2019-05-09T08:28:38.756Z,10360.00
2019-05-09T08:29:39.357Z,10576.00
2019-05-09T08:30:39.924Z,10532.00
2019-05-09T08:31:40.073Z,10776.00
2019-05-09T08:32:37.733Z,10460.00
2019-05-09T08:33:38.035Z,10640.00
2019-05-09T08:34:37.767Z,10608.00
2019-05-09T08:35:38.416Z,10936.00
2019-05-09T08:36:38.338Z,10956.00
2019-05-09T08:37:38.779Z,10788.00
2019-05-09T08:38:38.570Z,10132.00
2019-05-09T08:39:38.282Z,9952.00
2019-05-09T08:40:38.250Z,9576.00
2019-05-09T08:41:38.481Z,8984.00
2019-05-09T08:42:37.825Z,8872.00
2019-05-09T08:43:37.707Z,8660.00
2019-05-09T08:44:38.251Z,8800.00
2019-05-09T08:45:38.063Z,9220.00
2019-05-09T08:46:37.730Z,9568.00
2019-05-09T08:47:38.056Z,9856.00
2019-05-09T08:48:37.883Z,10032.00
2019-05-09T08:49:37.431Z,10264.00
2019-05-09T08:50:38.670Z,10860.00
2019-05-09T08:51:47.563Z,11060.00
2019-05-09T08:52:37.616Z,11256.00
2019-05-09T08:53:37.964Z,10952.00
2019-05-09T08:54:37.856Z,10928.00
2019-05-09T08:55:38.132Z,11384.00
2019-05-09T08:56:38.573Z,12204.00
2019-05-09T08:57:37.521Z,12180.00
2019-05-09T08:58:38.043Z,12052.00
2019-05-09T08:59:38.072Z,11740.00
2019-05-09T09:00:35.649Z,11304.00
2019-05-09T09:02:05.028Z,11120.00
2019-05-09T09:02:37.673Z,11716.00
2019-05-09T09:03:37.759Z,12448.00
2019-05-09T09:04:38.166Z,11952.00
2019-05-09T09:05:37.858Z,11500.00
2019-05-09T09:06:37.400Z,11292.00
2019-05-09T09:07:37.754Z,11716.00
2019-05-09T09:08:37.719Z,11420.00
2019-05-09T09:09:37.720Z,11284.00
2019-05-09T09:10:38.042Z,11632.00
2019-05-09T09:11:35.403Z,12148.00
2019-05-09T09:12:35.379Z,13176.00
2019-05-09T09:13:37.619Z,14148.00
2019-05-09T09:14:35.334Z,14832.00
2019-05-09T09:15:57.965Z,15244.00
2019-05-09T09:16:35.292Z,13784.00
2019-05-09T09:17:35.267Z,13708.00
2019-05-09T09:18:35.246Z,14108.00
2019-05-09T09:19:35.224Z,14020.00
2019-05-09T09:20:37.768Z,13096.00
2019-05-09T09:21:35.179Z,13188.00
2019-05-09T09:22:37.377Z,12400.00
2019-05-09T09:23:44.011Z,11996.00
2019-05-09T09:24:37.395Z,11604.00
2019-05-09T09:25:35.092Z,11176.00
2019-05-09T09:26:35.070Z,10940.00
2019-05-09T09:27:35.049Z,10580.00
2019-05-09T09:28:35.029Z,10656.00
2019-05-09T09:29:38.030Z,10392.00
2019-05-09T09:30:34.984Z,10252.00
2019-05-09T09:31:34.963Z,10108.00
2019-05-09T09:32:34.944Z,10744.00
2019-05-09T09:33:37.468Z,11412.00
2019-05-09T09:34:34.900Z,11516.00
2019-05-09T09:35:34.877Z,11576.00
2019-05-09T09:36:34.858Z,11288.00
2019-05-09T09:37:47.581Z,10800.00
2019-05-09T09:38:34.812Z,10584.00
2019-05-09T09:39:34.823Z,10716.00
2019-05-09T09:40:34.769Z,10084.00
2019-05-09T09:41:34.775Z,9592.00
2019-05-09T09:42:34.733Z,9572.00
2019-05-09T09:43:34.703Z,9040.00
2019-05-09T09:44:34.683Z,8144.00
2019-05-09T09:45:34.659Z,8692.00
2019-05-09T09:46:34.637Z,8744.00
2019-05-09T09:47:34.616Z,8980.00
2019-05-09T09:48:34.595Z,9092.00
2019-05-09T09:49:34.707Z,9632.00
2019-05-09T09:50:34.551Z,8840.00
2019-05-09T09:51:34.541Z,7924.00
2019-05-09T09:52:34.652Z,6948.00
2019-05-09T09:53:34.484Z,7488.00
2019-05-09T09:54:34.464Z,7140.00
2019-05-09T09:55:34.442Z,7024.00
2019-05-09T09:56:34.421Z,7036.00
2019-05-09T09:57:34.398Z,7280.00
2019-05-09T09:58:34.377Z,6816.00
2019-05-09T09:59:37.403Z,7724.00
2019-05-09T10:00:34.334Z,7716.00
2019-05-09T10:01:34.313Z,6464.00
2019-05-09T10:02:34.289Z,6576.00
2019-05-09T10:03:34.272Z,6696.00
2019-05-09T10:04:34.247Z,7528.00
2019-05-09T10:05:34.224Z,8204.00
2019-05-09T10:06:34.203Z,9272.00
2019-05-09T10:07:34.181Z,10268.00
2019-05-09T10:08:34.160Z,10540.00
2019-05-09T10:09:34.137Z,8400.00
2019-05-09T10:10:34.124Z,5932.00
2019-05-09T10:11:34.095Z,5716.00
2019-05-09T10:12:34.321Z,5700.00
2019-05-09T10:13:34.054Z,5804.00
2019-05-09T10:14:34.028Z,5552.00
2019-05-09T10:15:34.006Z,5772.00
2019-05-09T10:16:33.985Z,6468.00
2019-05-09T10:17:33.962Z,7604.00
2019-05-09T10:18:33.941Z,7324.00
2019-05-09T10:19:33.923Z,6308.00
2019-05-09T10:20:33.896Z,6080.00
2019-05-09T10:21:33.876Z,6124.00
2019-05-09T10:22:33.912Z,5284.00
2019-05-09T10:23:33.850Z,7156.00
2019-05-09T10:24:33.811Z,8488.00
2019-05-09T10:25:33.790Z,10688.00
2019-05-09T10:26:33.767Z,11088.00
2019-05-09T10:27:33.745Z,10888.00
2019-05-09T10:28:33.729Z,10504.00
2019-05-09T10:29:34.451Z,9220.00
2019-05-09T10:30:33.680Z,8392.00
2019-05-09T10:31:33.657Z,9212.00
2019-05-09T10:32:33.636Z,8640.00
2019-05-09T10:33:33.613Z,7552.00
2019-05-09T10:34:33.593Z,7648.00
2019-05-09T10:35:33.575Z,9716.00
2019-05-09T10:36:33.549Z,11684.00
2019-05-09T10:37:33.527Z,8680.00
2019-05-09T10:38:33.505Z,8448.00
2019-05-09T10:39:33.483Z,8912.00
2019-05-09T10:40:33.462Z,8780.00
2019-05-09T10:41:33.439Z,6148.00
2019-05-09T10:42:33.418Z,5408.00
2019-05-09T10:43:38.679Z,7064.00
2019-05-09T10:44:33.374Z,6184.00
2019-05-09T10:45:33.357Z,5488.00
2019-05-09T10:46:48.123Z,5340.00
2019-05-09T10:47:33.309Z,6616.00
2019-05-09T10:48:33.287Z,6832.00
2019-05-09T10:49:33.265Z,5800.00
2019-05-09T10:50:34.721Z,7400.00
2019-05-09T10:51:33.222Z,9584.00
2019-05-09T10:52:33.202Z,8436.00
2019-05-09T10:53:33.178Z,7360.00
2019-05-09T10:54:33.159Z,6992.00
2019-05-09T10:55:33.136Z,7020.00
2019-05-09T10:56:38.423Z,7120.00
2019-05-09T10:57:33.104Z,6588.00
2019-05-09T10:58:33.079Z,6492.00
2019-05-09T10:59:33.052Z,6912.00
2019-05-09T11:00:33.029Z,8024.00
2019-05-09T11:01:33.006Z,9300.00
2019-05-09T11:02:33.737Z,10192.00
2019-05-09T11:03:32.963Z,10972.00
2019-05-09T11:04:32.941Z,12272.00
2019-05-09T11:05:32.919Z,11476.00
2019-05-09T11:06:32.898Z,11400.00
2019-05-09T11:07:32.878Z,11288.00
2019-05-09T11:08:32.856Z,13292.00
2019-05-09T11:09:32.833Z,12456.00
2019-05-09T11:10:33.072Z,9908.00
2019-05-09T11:11:32.853Z,6972.00
2019-05-09T11:12:32.769Z,6484.00
2019-05-09T11:13:32.749Z,5888.00
2019-05-09T11:14:37.283Z,5668.00
2019-05-09T11:15:32.707Z,5252.00
2019-05-09T11:16:44.927Z,5836.00
2019-05-09T11:17:32.664Z,6968.00
2019-05-09T11:18:32.643Z,9684.00
2019-05-09T11:19:32.622Z,12156.00
2019-05-09T11:20:32.601Z,12556.00
2019-05-09T11:21:32.579Z,11592.00
2019-05-09T11:22:32.563Z,9760.00
2019-05-09T11:23:34.039Z,10888.00
2019-05-09T11:24:44.877Z,11144.00
2019-05-09T11:25:32.494Z,9804.00
2019-05-09T11:26:32.473Z,8700.00
2019-05-09T11:27:32.452Z,8072.00
2019-05-09T11:28:32.433Z,6144.00
2019-05-09T11:29:35.420Z,4580.00
2019-05-09T11:30:32.386Z,4016.00
2019-05-09T11:31:32.369Z,4424.00
2019-05-09T11:32:32.345Z,4312.00
2019-05-09T11:33:32.323Z,4236.00
2019-05-09T11:34:32.302Z,4172.00
2019-05-09T11:35:33.781Z,4148.00
2019-05-09T11:36:32.258Z,4152.00
2019-05-09T11:37:32.236Z,4172.00
2019-05-09T11:38:37.888Z,4232.00
2019-05-09T11:39:39.754Z,4168.00
2019-05-09T11:40:32.171Z,4156.00
2019-05-09T11:41:32.149Z,4184.00
2019-05-09T11:42:33.523Z,4252.00
2019-05-09T11:43:32.105Z,4356.00
2019-05-09T11:44:32.083Z,4428.00
2019-05-09T11:45:32.061Z,4548.00
2019-05-09T11:46:32.038Z,4752.00
2019-05-09T11:47:41.524Z,4832.00
2019-05-09T11:48:31.994Z,4892.00
2019-05-09T11:49:31.972Z,5368.00
2019-05-09T11:50:31.953Z,6364.00
2019-05-09T11:51:31.927Z,7376.00
2019-05-09T11:52:34.159Z,7464.00
2019-05-09T11:53:31.884Z,7272.00
2019-05-09T11:54:31.862Z,8264.00
2019-05-09T11:55:36.434Z,9352.00
2019-05-09T11:56:31.826Z,9368.00
2019-05-09T11:57:31.796Z,9344.00
2019-05-09T11:58:34.026Z,8472.00
2019-05-09T11:59:31.753Z,9244.00
2019-05-09T12:00:31.736Z,8288.00
2019-05-09T12:01:31.722Z,9248.00
2019-05-09T12:02:31.687Z,9336.00
2019-05-09T12:03:31.670Z,10880.00
2019-05-09T12:04:31.652Z,12344.00
2019-05-09T12:05:31.622Z,11508.00
2019-05-09T12:06:31.611Z,11840.00
2019-05-09T12:07:31.579Z,12976.00
2019-05-09T12:08:31.559Z,10804.00
2019-05-09T12:09:31.536Z,8112.00
2019-05-09T12:10:31.520Z,5416.00
2019-05-09T12:11:31.494Z,4876.00
2019-05-09T12:12:31.474Z,4764.00
2019-05-09T12:13:31.451Z,4760.00
2019-05-09T12:14:31.431Z,4600.00
2019-05-09T12:15:31.429Z,4556.00
2019-05-09T12:16:31.388Z,4628.00
2019-05-09T12:17:49.181Z,4788.00
2019-05-09T12:18:31.345Z,5032.00
2019-05-09T12:19:31.338Z,5164.00
2019-05-09T12:20:31.303Z,5224.00
2019-05-09T12:21:31.281Z,5112.00
2019-05-09T12:22:31.270Z,4820.00
2019-05-09T12:23:31.238Z,4852.00
2019-05-09T12:24:31.218Z,4816.00